sensor_id;sensor_type;location;lat;lon;timestamp;pressure;altitude;pressure_sealevel;temperature;humidity
57610;BME280;43435;46.186;9.024;2024-02-14T09:00:08;99498.31;;;8.52;49.38
57610;BME280;43435;46.186;9.024;2024-02-14T09:02:35;99489.50;;;8.59;48.96
57610;BME280;43435;46.186;9.024;2024-02-14T09:05:00;99497.66;;;8.66;48.69
57610;BME280;43435;46.186;9.024;2024-02-14T09:07:26;99495.63;;;8.76;48.33
57610;BME280;43435;46.186;9.024;2024-02-14T09:09:51;99491.16;;;8.77;47.78
57610;BME280;43435;46.186;9.024;2024-02-14T09:12:17;99496.59;;;8.83;47.74
57610;BME280;43435;46.186;9.024;2024-02-14T09:14:42;99493.63;;;8.86;47.75
57610;BME280;43435;46.186;9.024;2024-02-14T09:17:08;99495.63;;;8.92;47.97
57610;BME280;43435;46.186;9.024;2024-02-14T09:19:33;99495.78;;;8.99;47.70
57610;BME280;43435;46.186;9.024;2024-02-14T09:21:58;99492.78;;;9.02;47.84
57610;BME280;43435;46.186;9.024;2024-02-14T09:24:24;99494.59;;;9.10;47.64
57610;BME280;43435;46.186;9.024;2024-02-14T09:26:49;99498.22;;;9.25;47.29
57610;BME280;43435;46.186;9.024;2024-02-14T09:29:14;99504.66;;;9.31;46.88
57610;BME280;43435;46.186;9.024;2024-02-14T09:31:40;99502.34;;;9.36;46.72
57610;BME280;43435;46.186;9.024;2024-02-14T09:34:05;99485.00;;;9.40;46.56
57610;BME280;43435;46.186;9.024;2024-02-14T09:36:31;99480.50;;;9.40;46.31
57610;BME280;43435;46.186;9.024;2024-02-14T09:38:56;99491.81;;;9.51;46.23
57610;BME280;43435;46.186;9.024;2024-02-14T09:41:36;99484.28;;;9.54;45.20
57610;BME280;43435;46.186;9.024;2024-02-14T09:44:03;99488.63;;;9.55;44.87
57610;BME280;43435;46.186;9.024;2024-02-14T09:46:28;99478.97;;;9.54;44.90
57610;BME280;43435;46.186;9.024;2024-02-14T09:48:56;99488.53;;;9.72;44.28
57610;BME280;43435;46.186;9.024;2024-02-14T09:51:21;99486.53;;;9.74;43.96
57610;BME280;43435;46.186;9.024;2024-02-14T09:53:49;99476.34;;;9.77;44.05
57610;BME280;43435;46.186;9.024;2024-02-14T09:56:15;99473.16;;;9.82;43.61
57610;BME280;43435;46.186;9.024;2024-02-14T09:58:44;99467.63;;;9.91;43.63
57610;BME280;43435;46.186;9.024;2024-02-14T10:01:20;99464.22;;;9.98;43.95
57610;BME280;43435;46.186;9.024;2024-02-14T10:03:49;99469.53;;;10.06;43.71
57610;BME280;43435;46.186;9.024;2024-02-14T10:06:14;99466.81;;;10.14;44.12
57610;BME280;43435;46.186;9.024;2024-02-14T10:08:41;99460.94;;;10.19;43.21
57610;BME280;43435;46.186;9.024;2024-02-14T10:11:07;99447.75;;;10.25;43.26
57610;BME280;43435;46.186;9.024;2024-02-14T10:13:33;99443.91;;;10.28;43.32
57610;BME280;43435;46.186;9.024;2024-02-14T10:16:00;99447.81;;;10.40;42.91
57610;BME280;43435;46.186;9.024;2024-02-14T10:18:25;99439.09;;;10.46;42.65
57610;BME280;43435;46.186;9.024;2024-02-14T10:20:55;99435.06;;;10.50;41.97
57610;BME280;43435;46.186;9.024;2024-02-14T10:23:21;99431.03;;;10.54;41.33
57610;BME280;43435;46.186;9.024;2024-02-14T10:25:49;99425.59;;;10.62;41.16
57610;BME280;43435;46.186;9.024;2024-02-14T10:28:15;99415.22;;;10.68;40.83
57610;BME280;43435;46.186;9.024;2024-02-14T10:30:45;99417.34;;;10.72;40.57
57610;BME280;43435;46.186;9.024;2024-02-14T10:33:11;99426.81;;;10.75;39.61
57610;BME280;43435;46.186;9.024;2024-02-14T10:35:37;99441.91;;;10.82;40.50
57610;BME280;43435;46.186;9.024;2024-02-14T10:38:03;99444.97;;;10.94;40.31
57610;BME280;43435;46.186;9.024;2024-02-14T10:40:32;99425.47;;;10.94;39.96
57610;BME280;43435;46.186;9.024;2024-02-14T10:42:58;99444.63;;;11.12;40.10
57610;BME280;43435;46.186;9.024;2024-02-14T10:45:24;99446.72;;;11.17;39.64
57610;BME280;43435;46.186;9.024;2024-02-14T10:47:51;99438.41;;;11.11;39.63
57610;BME280;43435;46.186;9.024;2024-02-14T10:50:17;99449.66;;;11.22;39.39
57610;BME280;43435;46.186;9.024;2024-02-14T10:52:44;99440.25;;;11.26;39.29
57610;BME280;43435;46.186;9.024;2024-02-14T10:55:12;99445.34;;;11.35;39.21
57610;BME280;43435;46.186;9.024;2024-02-14T10:57:37;99443.75;;;11.41;39.35
57610;BME280;43435;46.186;9.024;2024-02-14T11:00:06;99449.47;;;11.53;39.32
57610;BME280;43435;46.186;9.024;2024-02-14T11:02:34;99452.00;;;11.76;39.92
57610;BME280;43435;46.186;9.024;2024-02-14T11:05:02;99446.84;;;11.59;39.58
57610;BME280;43435;46.186;9.024;2024-02-14T11:07:28;99435.50;;;12.08;42.08
57610;BME280;43435;46.186;9.024;2024-02-14T11:10:04;99435.63;;;12.22;38.74
57610;BME280;43435;46.186;9.024;2024-02-14T11:12:34;99434.88;;;12.06;37.36
57610;BME280;43435;46.186;9.024;2024-02-14T11:15:02;99433.34;;;11.97;37.60
57610;BME280;43435;46.186;9.024;2024-02-14T11:17:31;99426.22;;;12.04;37.92
57610;BME280;43435;46.186;9.024;2024-02-14T11:19:56;99422.16;;;12.30;38.45
57610;BME280;43435;46.186;9.024;2024-02-14T11:22:21;99407.19;;;12.64;38.90
57610;BME280;43435;46.186;9.024;2024-02-14T11:24:48;99402.28;;;12.74;38.98
57610;BME280;43435;46.186;9.024;2024-02-14T11:27:14;99400.59;;;12.66;38.53
57610;BME280;43435;46.186;9.024;2024-02-14T11:29:40;99391.50;;;12.61;37.94
57610;BME280;43435;46.186;9.024;2024-02-14T11:32:06;99395.66;;;12.63;38.08
57610;BME280;43435;46.186;9.024;2024-02-14T11:34:34;99394.81;;;12.63;37.69
57610;BME280;43435;46.186;9.024;2024-02-14T11:37:00;99384.31;;;12.61;37.58
57610;BME280;43435;46.186;9.024;2024-02-14T11:39:25;99393.66;;;12.72;37.43
57610;BME280;43435;46.186;9.024;2024-02-14T11:41:50;99398.22;;;12.78;37.17
57610;BME280;43435;46.186;9.024;2024-02-14T11:44:16;99385.03;;;12.76;37.24
57610;BME280;43435;46.186;9.024;2024-02-14T11:46:41;99388.78;;;12.82;36.76
57610;BME280;43435;46.186;9.024;2024-02-14T11:49:09;99389.38;;;12.84;36.55
57610;BME280;43435;46.186;9.024;2024-02-14T11:51:35;99383.22;;;12.84;35.87
57610;BME280;43435;46.186;9.024;2024-02-14T11:54:01;99380.38;;;12.92;35.72
57610;BME280;43435;46.186;9.024;2024-02-14T11:56:32;99384.50;;;12.94;35.13
57610;BME280;43435;46.186;9.024;2024-02-14T11:59:02;99386.19;;;13.02;34.99
57610;BME280;43435;46.186;9.024;2024-02-14T12:01:29;99377.56;;;13.06;34.90
57610;BME280;43435;46.186;9.024;2024-02-14T12:03:56;99372.03;;;13.08;33.29
57610;BME280;43435;46.186;9.024;2024-02-14T12:06:22;99361.34;;;13.15;33.88
57610;BME280;43435;46.186;9.024;2024-02-14T12:08:47;99354.19;;;13.22;34.13
57610;BME280;43435;46.186;9.024;2024-02-14T12:11:13;99359.13;;;13.25;32.91
57610;BME280;43435;46.186;9.024;2024-02-14T12:13:38;99340.97;;;13.20;32.70
57610;BME280;43435;46.186;9.024;2024-02-14T12:16:08;99355.03;;;13.29;33.08
57610;BME280;43435;46.186;9.024;2024-02-14T12:18:33;99357.72;;;13.29;32.77
57610;BME280;43435;46.186;9.024;2024-02-14T12:21:06;99359.59;;;13.35;32.82
57610;BME280;43435;46.186;9.024;2024-02-14T12:23:34;99360.41;;;13.36;32.88
57610;BME280;43435;46.186;9.024;2024-02-14T12:26:03;99345.81;;;13.38;32.82
57610;BME280;43435;46.186;9.024;2024-02-14T12:28:29;99334.47;;;13.36;32.91
57610;BME280;43435;46.186;9.024;2024-02-14T12:30:59;99347.47;;;13.46;32.72
57610;BME280;43435;46.186;9.024;2024-02-14T12:33:25;99338.41;;;13.47;32.34
57610;BME280;43435;46.186;9.024;2024-02-14T12:35:53;99338.81;;;13.50;32.41
57610;BME280;43435;46.186;9.024;2024-02-14T14:19:55;99249.28;;;16.04;29.89
57610;BME280;43435;46.186;9.024;2024-02-14T14:22:20;99278.91;;;16.23;29.77
57610;BME280;43435;46.186;9.024;2024-02-14T14:24:46;99282.38;;;16.30;29.31
57610;BME280;43435;46.186;9.024;2024-02-14T14:27:11;99280.88;;;16.34;29.20
57610;BME280;43435;46.186;9.024;2024-02-14T14:29:42;99282.00;;;16.45;29.30
57610;BME280;43435;46.186;9.024;2024-02-14T14:32:08;99279.69;;;16.48;29.43
57610;BME280;43435;46.186;9.024;2024-02-14T14:34:34;99268.19;;;16.59;29.46
57610;BME280;43435;46.186;9.024;2024-02-14T14:36:59;99274.31;;;16.66;29.25
57610;BME280;43435;46.186;9.024;2024-02-14T14:39:26;99286.84;;;16.79;28.69
57610;BME280;43435;46.186;9.024;2024-02-14T14:41:51;99274.59;;;16.83;29.00
57610;BME280;43435;46.186;9.024;2024-02-14T14:44:18;99282.06;;;16.81;29.01
57610;BME280;43435;46.186;9.024;2024-02-14T14:46:44;99292.50;;;16.89;29.11
57610;BME280;43435;46.186;9.024;2024-02-14T14:49:09;99293.25;;;16.97;28.69
57610;BME280;43435;46.186;9.024;2024-02-14T14:51:35;99292.00;;;16.99;28.84
57610;BME280;43435;46.186;9.024;2024-02-14T14:54:01;99303.38;;;17.01;28.97
57610;BME280;43435;46.186;9.024;2024-02-14T14:56:26;99298.38;;;17.05;29.22
57610;BME280;43435;46.186;9.024;2024-02-14T14:58:52;99304.56;;;17.05;28.79
57610;BME280;43435;46.186;9.024;2024-02-14T15:01:18;99308.66;;;17.08;29.17
57610;BME280;43435;46.186;9.024;2024-02-14T15:03:44;99305.84;;;17.03;29.04
57610;BME280;43435;46.186;9.024;2024-02-14T15:06:09;99299.09;;;16.94;28.96
57610;BME280;43435;46.186;9.024;2024-02-14T15:08:35;99306.84;;;16.90;28.70
57610;BME280;43435;46.186;9.024;2024-02-14T15:11:00;99301.53;;;16.83;28.54
57610;BME280;43435;46.186;9.024;2024-02-14T15:13:25;99297.66;;;16.73;28.97
57610;BME280;43435;46.186;9.024;2024-02-14T15:15:51;99300.88;;;16.63;29.37
57610;BME280;43435;46.186;9.024;2024-02-14T15:18:17;99308.94;;;16.63;29.16
57610;BME280;43435;46.186;9.024;2024-02-14T15:20:42;99303.41;;;16.58;29.53
57610;BME280;43435;46.186;9.024;2024-02-14T15:23:07;99305.78;;;16.48;30.34
57610;BME280;43435;46.186;9.024;2024-02-14T15:25:34;99306.09;;;16.39;30.77
57610;BME280;43435;46.186;9.024;2024-02-14T15:28:06;99298.75;;;16.28;31.12
57610;BME280;43435;46.186;9.024;2024-02-14T15:30:32;99302.06;;;16.24;31.13
57610;BME280;43435;46.186;9.024;2024-02-14T15:33:16;99305.00;;;16.22;31.48
57610;BME280;43435;46.186;9.024;2024-02-14T15:35:55;99319.50;;;16.21;32.34
57610;BME280;43435;46.186;9.024;2024-02-14T15:38:22;99312.91;;;16.17;32.78
57610;BME280;43435;46.186;9.024;2024-02-14T15:40:49;99322.47;;;16.13;33.00
57610;BME280;43435;46.186;9.024;2024-02-14T15:43:18;99316.31;;;16.06;32.81
57610;BME280;43435;46.186;9.024;2024-02-14T15:45:43;99315.75;;;15.97;33.28
57610;BME280;43435;46.186;9.024;2024-02-14T15:48:08;99322.84;;;15.91;33.60
57610;BME280;43435;46.186;9.024;2024-02-14T15:50:37;99321.44;;;15.82;33.81
57610;BME280;43435;46.186;9.024;2024-02-14T15:53:03;99322.34;;;15.76;34.21
57610;BME280;43435;46.186;9.024;2024-02-14T15:55:29;99317.59;;;15.72;34.32
57610;BME280;43435;46.186;9.024;2024-02-14T15:57:55;99327.75;;;15.69;34.72
57610;BME280;43435;46.186;9.024;2024-02-14T16:00:22;99322.38;;;15.69;34.95
57610;BME280;43435;46.186;9.024;2024-02-14T16:02:50;99332.91;;;15.71;34.44
57610;BME280;43435;46.186;9.024;2024-02-14T16:05:16;99335.59;;;15.71;34.43
57610;BME280;43435;46.186;9.024;2024-02-14T16:07:42;99338.91;;;15.73;34.46
57610;BME280;43435;46.186;9.024;2024-02-14T16:10:08;99326.94;;;15.69;34.06
57610;BME280;43435;46.186;9.024;2024-02-14T16:12:33;99327.88;;;15.81;33.27
57610;BME280;43435;46.186;9.024;2024-02-14T16:15:00;99333.09;;;15.76;32.99
57610;BME280;43435;46.186;9.024;2024-02-14T16:17:25;99330.81;;;15.80;32.79
57610;BME280;43435;46.186;9.024;2024-02-14T16:19:50;99339.06;;;15.78;32.64
57610;BME280;43435;46.186;9.024;2024-02-14T16:22:16;99339.13;;;15.65;31.97
57610;BME280;43435;46.186;9.024;2024-02-14T16:24:43;99342.25;;;15.62;32.29
57610;BME280;43435;46.186;9.024;2024-02-14T16:27:10;99340.03;;;15.45;32.49
57610;BME280;43435;46.186;9.024;2024-02-14T16:29:35;99337.38;;;15.39;32.61
57610;BME280;43435;46.186;9.024;2024-02-14T16:32:05;99339.50;;;15.30;32.79
57610;BME280;43435;46.186;9.024;2024-02-14T16:34:32;99334.97;;;15.31;33.48
57610;BME280;43435;46.186;9.024;2024-02-14T16:36:57;99342.19;;;15.30;33.41
57610;BME280;43435;46.186;9.024;2024-02-14T16:39:22;99333.34;;;15.23;33.88
57610;BME280;43435;46.186;9.024;2024-02-14T16:41:48;99341.81;;;15.20;34.12
57610;BME280;43435;46.186;9.024;2024-02-14T16:44:13;99345.56;;;15.19;34.03
57610;BME280;43435;46.186;9.024;2024-02-14T16:46:39;99346.84;;;15.10;33.59
57610;BME280;43435;46.186;9.024;2024-02-14T16:49:04;99359.25;;;14.97;33.04
57610;BME280;43435;46.186;9.024;2024-02-14T16:51:30;99340.53;;;14.84;33.10
57610;BME280;43435;46.186;9.024;2024-02-14T16:53:55;99351.84;;;14.86;33.24
57610;BME280;43435;46.186;9.024;2024-02-14T16:56:20;99359.97;;;14.73;33.44
57610;BME280;43435;46.186;9.024;2024-02-14T16:58:46;99355.00;;;14.63;33.66
57610;BME280;43435;46.186;9.024;2024-02-14T17:01:11;99369.88;;;14.59;33.47
57610;BME280;43435;46.186;9.024;2024-02-14T17:03:36;99363.88;;;14.50;33.71
57610;BME280;43435;46.186;9.024;2024-02-14T17:06:02;99372.75;;;14.44;33.45
57610;BME280;43435;46.186;9.024;2024-02-14T17:08:29;99370.91;;;14.38;33.60
57610;BME280;43435;46.186;9.024;2024-02-14T17:10:55;99364.09;;;14.29;34.42
57610;BME280;43435;46.186;9.024;2024-02-14T17:13:21;99368.25;;;14.25;35.24
57610;BME280;43435;46.186;9.024;2024-02-14T17:15:47;99362.03;;;14.24;35.00
57610;BME280;43435;46.186;9.024;2024-02-14T17:18:13;99361.84;;;14.26;34.72
57610;BME280;43435;46.186;9.024;2024-02-14T17:20:38;99367.59;;;14.16;34.96
57610;BME280;43435;46.186;9.024;2024-02-14T17:23:03;99385.34;;;14.17;35.51
57610;BME280;43435;46.186;9.024;2024-02-14T17:25:28;99386.56;;;14.08;35.61
57610;BME280;43435;46.186;9.024;2024-02-14T17:27:54;99399.56;;;14.05;35.88
57610;BME280;43435;46.186;9.024;2024-02-14T17:30:20;99385.13;;;13.92;36.19
57610;BME280;43435;46.186;9.024;2024-02-14T17:32:46;99392.13;;;14.00;36.04
57610;BME280;43435;46.186;9.024;2024-02-14T17:35:13;99394.59;;;13.95;35.71
57610;BME280;43435;46.186;9.024;2024-02-14T17:37:39;99399.53;;;13.91;35.41
57610;BME280;43435;46.186;9.024;2024-02-14T17:40:07;99405.09;;;13.90;35.76
57610;BME280;43435;46.186;9.024;2024-02-14T17:42:32;99421.38;;;13.82;36.31
57610;BME280;43435;46.186;9.024;2024-02-14T17:44:58;99420.13;;;13.71;36.95
57610;BME280;43435;46.186;9.024;2024-02-14T17:47:23;99414.13;;;13.69;37.09
57610;BME280;43435;46.186;9.024;2024-02-14T17:49:48;99411.44;;;13.69;37.42
57610;BME280;43435;46.186;9.024;2024-02-14T17:52:14;99403.38;;;13.62;37.52
57610;BME280;43435;46.186;9.024;2024-02-14T17:54:44;99419.44;;;13.62;37.80
57610;BME280;43435;46.186;9.024;2024-02-14T17:57:09;99415.34;;;13.60;37.95
57610;BME280;43435;46.186;9.024;2024-02-14T17:59:35;99424.00;;;13.62;37.83
57610;BME280;43435;46.186;9.024;2024-02-14T18:02:00;99430.16;;;13.56;38.27
57610;BME280;43435;46.186;9.024;2024-02-14T18:04:26;99435.06;;;13.45;38.63
57610;BME280;43435;46.186;9.024;2024-02-14T18:06:51;99435.25;;;13.44;38.73
57610;BME280;43435;46.186;9.024;2024-02-14T18:09:16;99438.34;;;13.41;39.07
57610;BME280;43435;46.186;9.024;2024-02-14T18:11:42;99433.78;;;13.35;39.38
57610;BME280;43435;46.186;9.024;2024-02-14T18:14:07;99430.69;;;13.31;40.35
57610;BME280;43435;46.186;9.024;2024-02-14T18:16:32;99434.16;;;13.32;40.10
57610;BME280;43435;46.186;9.024;2024-02-14T18:18:58;99438.06;;;13.29;39.33
57610;BME280;43435;46.186;9.024;2024-02-14T18:21:23;99430.63;;;13.24;40.00
57610;BME280;43435;46.186;9.024;2024-02-14T18:23:48;99438.84;;;13.23;39.71
57610;BME280;43435;46.186;9.024;2024-02-14T18:26:13;99420.84;;;13.10;39.87
57610;BME280;43435;46.186;9.024;2024-02-14T18:28:40;99435.09;;;13.17;39.61
57610;BME280;43435;46.186;9.024;2024-02-14T18:31:05;99434.13;;;13.25;38.84
57610;BME280;43435;46.186;9.024;2024-02-14T18:33:33;99440.06;;;13.20;38.80
57610;BME280;43435;46.186;9.024;2024-02-14T18:35:58;99446.19;;;13.14;39.45
57610;BME280;43435;46.186;9.024;2024-02-14T18:38:26;99447.91;;;13.22;38.86
57610;BME280;43435;46.186;9.024;2024-02-14T18:40:56;99444.75;;;13.12;39.10
57610;BME280;43435;46.186;9.024;2024-02-14T18:43:22;99446.34;;;13.06;39.65
57610;BME280;43435;46.186;9.024;2024-02-14T18:45:48;99457.28;;;13.04;39.43
57610;BME280;43435;46.186;9.024;2024-02-14T18:48:13;99445.53;;;13.05;39.45
57610;BME280;43435;46.186;9.024;2024-02-14T18:50:40;99440.72;;;12.94;39.46
57610;BME280;43435;46.186;9.024;2024-02-14T18:53:05;99451.28;;;13.02;39.92
57610;BME280;43435;46.186;9.024;2024-02-14T18:55:31;99457.22;;;12.98;40.44
57610;BME280;43435;46.186;9.024;2024-02-14T18:57:56;99455.59;;;12.97;40.75
57610;BME280;43435;46.186;9.024;2024-02-14T21:35:41;99459.72;;;11.71;43.38
57610;BME280;43435;46.186;9.024;2024-02-14T21:38:11;99471.53;;;11.61;44.08
57610;BME280;43435;46.186;9.024;2024-02-14T21:40:36;99475.31;;;11.67;44.01
57610;BME280;43435;46.186;9.024;2024-02-14T21:43:02;99470.53;;;11.63;43.81
57610;BME280;43435;46.186;9.024;2024-02-14T21:45:30;99490.63;;;11.58;44.04
57610;BME280;43435;46.186;9.024;2024-02-14T21:47:55;99478.44;;;11.56;44.21
57610;BME280;43435;46.186;9.024;2024-02-14T21:50:21;99479.66;;;11.53;44.42
57610;BME280;43435;46.186;9.024;2024-02-14T21:52:46;99472.22;;;11.49;44.46
57610;BME280;43435;46.186;9.024;2024-02-14T21:55:12;99483.34;;;11.52;44.54
57610;BME280;43435;46.186;9.024;2024-02-14T21:57:37;99489.91;;;11.50;44.80
57610;BME280;43435;46.186;9.024;2024-02-14T22:00:02;99491.81;;;11.41;44.95
57610;BME280;43435;46.186;9.024;2024-02-14T22:02:30;99487.78;;;11.30;45.37
57610;BME280;43435;46.186;9.024;2024-02-14T22:04:55;99497.09;;;11.34;45.37
57610;BME280;43435;46.186;9.024;2024-02-14T22:07:21;99495.59;;;11.32;45.54
57610;BME280;43435;46.186;9.024;2024-02-14T22:09:46;99496.16;;;11.27;45.72
57610;BME280;43435;46.186;9.024;2024-02-14T22:12:11;99493.03;;;11.24;45.65
57610;BME280;43435;46.186;9.024;2024-02-14T22:14:37;99502.34;;;11.28;45.83
57610;BME280;43435;46.186;9.024;2024-02-14T22:17:03;99502.88;;;11.23;46.07
57610;BME280;43435;46.186;9.024;2024-02-14T22:19:30;99495.59;;;11.17;46.21
57610;BME280;43435;46.186;9.024;2024-02-14T22:21:59;99484.09;;;11.17;46.56
57610;BME280;43435;46.186;9.024;2024-02-14T22:24:24;99481.13;;;11.11;46.80
57610;BME280;43435;46.186;9.024;2024-02-14T22:26:51;99474.88;;;11.04;46.93
57610;BME280;43435;46.186;9.024;2024-02-14T22:29:16;99472.84;;;11.06;46.71
57610;BME280;43435;46.186;9.024;2024-02-14T22:31:42;99486.22;;;11.21;46.53
57610;BME280;43435;46.186;9.024;2024-02-14T22:34:07;99478.00;;;11.23;46.30
57610;BME280;43435;46.186;9.024;2024-02-14T22:36:35;99490.38;;;11.24;46.07
57610;BME280;43435;46.186;9.024;2024-02-14T22:39:00;99495.13;;;11.13;46.35
57610;BME280;43435;46.186;9.024;2024-02-14T22:41:25;99491.53;;;11.06;46.75
57610;BME280;43435;46.186;9.024;2024-02-14T22:43:51;99494.56;;;11.03;46.91
57610;BME280;43435;46.186;9.024;2024-02-14T22:46:17;99493.84;;;10.95;47.15
57610;BME280;43435;46.186;9.024;2024-02-14T22:48:44;99486.66;;;10.95;47.40
57610;BME280;43435;46.186;9.024;2024-02-14T22:51:09;99481.97;;;10.97;46.99
57610;BME280;43435;46.186;9.024;2024-02-14T22:53:35;99487.94;;;10.99;46.83
57610;BME280;43435;46.186;9.024;2024-02-14T22:56:00;99489.41;;;10.87;47.30
57610;BME280;43435;46.186;9.024;2024-02-14T22:58:26;99487.56;;;10.87;47.38
57610;BME280;43435;46.186;9.024;2024-02-14T23:00:52;99484.53;;;10.91;47.12
57610;BME280;43435;46.186;9.024;2024-02-14T23:03:17;99483.59;;;10.83;47.34
57610;BME280;43435;46.186;9.024;2024-02-14T23:05:42;99463.22;;;10.68;47.39
57610;BME280;43435;46.186;9.024;2024-02-14T23:08:07;99487.44;;;10.81;47.51
57610;BME280;43435;46.186;9.024;2024-02-14T23:10:33;99485.16;;;10.93;47.04
57610;BME280;43435;46.186;9.024;2024-02-14T23:12:58;99485.63;;;10.96;46.85
57610;BME280;43435;46.186;9.024;2024-02-14T23:15:24;99487.91;;;10.84;47.05
57610;BME280;43435;46.186;9.024;2024-02-14T23:17:49;99474.81;;;10.75;47.23
57610;BME280;43435;46.186;9.024;2024-02-14T23:20:16;99489.53;;;10.71;47.52
57610;BME280;43435;46.186;9.024;2024-02-14T23:22:41;99495.53;;;10.73;47.59
57610;BME280;43435;46.186;9.024;2024-02-14T23:25:07;99494.59;;;10.66;47.67
57610;BME280;43435;46.186;9.024;2024-02-14T23:27:37;99506.91;;;10.67;48.00
57610;BME280;43435;46.186;9.024;2024-02-14T23:30:04;99505.81;;;10.61;48.10
57610;BME280;43435;46.186;9.024;2024-02-14T23:32:32;99507.00;;;10.58;48.56
57610;BME280;43435;46.186;9.024;2024-02-14T23:34:57;99512.44;;;10.65;48.28
57610;BME280;43435;46.186;9.024;2024-02-14T23:37:23;99511.63;;;10.64;48.07
57610;BME280;43435;46.186;9.024;2024-02-14T23:39:48;99511.50;;;10.58;48.25
57610;BME280;43435;46.186;9.024;2024-02-14T23:42:13;99514.53;;;10.55;48.51
57610;BME280;43435;46.186;9.024;2024-02-14T23:44:39;99517.19;;;10.55;48.30
57610;BME280;43435;46.186;9.024;2024-02-14T23:47:04;99513.03;;;10.52;48.20
57610;BME280;43435;46.186;9.024;2024-02-14T23:49:29;99515.69;;;10.52;48.03
57610;BME280;43435;46.186;9.024;2024-02-14T23:51:55;99514.03;;;10.51;48.59
57610;BME280;43435;46.186;9.024;2024-02-14T23:54:20;99501.53;;;10.52;48.36
57610;BME280;43435;46.186;9.024;2024-02-14T23:56:45;99507.22;;;10.49;48.35
57610;BME280;43435;46.186;9.024;2024-02-14T23:59:13;99506.25;;;10.50;48.51
